Spear Flower — HOVK — position and weather

sailwx.info

Track history (hours):
 
Tides and Currents Weather Stations Pressure Air Temp Water Temp Dewpoint Dewpoint Depression Visibility Wind Speed Wind Dir Waves Ship Positions

Spear Flower

Last reported at 2018-Feb-19 09:39 UTC. Time now 2018-Feb-22 19:10 UTC.
Position N 46°19' E 030°55'.

Length 171 m; draft 8.6 m.

Type: Cargo ship. MMSI: 356761000.

Date/timePositionNaut miles runAvg speedWind from/ knotsBaromVisibWave heightAir tempDewpointWater temp
2018-Feb-19 09:39N 46°19' E 030°55'311.1
2018-Feb-19 09:25N 46°22' E 030°55'511.2
2018-Feb-19 09:00N 46°26' E 030°55'510.8
2018-Feb-19 08:30N 46°32' E 030°55'7 0.2
2018-Feb-17 23:16N 46°37' E 031°02'  
2018-Feb-13 04:51N 46°36' E 031°01'3 9.6
2018-Feb-13 04:30N 46°33' E 030°59'2 4.8
2018-Feb-13 04:00N 46°31' E 030°57'510.5
2018-Feb-13 03:30N 46°26' E 030°57'611.1
2018-Feb-13 02:59N 46°20' E 030°57'33011.8
2018-Feb-11 23:08N 41°01' E 029°00'210.0
2018-Feb-11 22:55N 40°59' E 028°60'4 8.8
2018-Feb-11 22:29N 40°56' E 028°57'3 0.3
2018-Feb-11 13:07N 40°57' E 028°54'0 0.0
2018-Feb-11 04:31N 40°57' E 028°54'0 0.0
2018-Feb-10 20:06N 40°57' E 028°53'3 3.4
2018-Feb-10 19:20N 40°54' E 028°53'310.3
2018-Feb-10 19:00N 40°52' E 028°50'  
Track history (hours):
 
Tides and Currents Weather Stations Pressure Air Temp Water Temp Dewpoint Dewpoint Depression Visibility Wind Speed Wind Dir Waves Ship Positions

Spear Flower

Last reported at 2018-Feb-19 09:39 UTC. Time now 2018-Feb-22 19:10 UTC.
Position N 46°19' E 030°55'.

Length 171 m; draft 8.6 m.

Type: Cargo ship. MMSI: 356761000.

Date/timePositionNaut miles runAvg speedWind from/ knotsBaromVisibWave heightAir tempDewpointWater temp
2018-Feb-19 09:39N 46°19' E 030°55'311.1
2018-Feb-19 09:25N 46°22' E 030°55'511.2
2018-Feb-19 09:00N 46°26' E 030°55'510.8
2018-Feb-19 08:30N 46°32' E 030°55'7 0.2
2018-Feb-17 23:16N 46°37' E 031°02'  
2018-Feb-13 04:51N 46°36' E 031°01'3 9.6
2018-Feb-13 04:30N 46°33' E 030°59'2 4.8
2018-Feb-13 04:00N 46°31' E 030°57'510.5
2018-Feb-13 03:30N 46°26' E 030°57'611.1
2018-Feb-13 02:59N 46°20' E 030°57'33011.8
2018-Feb-11 23:08N 41°01' E 029°00'210.0
2018-Feb-11 22:55N 40°59' E 028°60'4 8.8
2018-Feb-11 22:29N 40°56' E 028°57'3 0.3
2018-Feb-11 13:07N 40°57' E 028°54'0 0.0
2018-Feb-11 04:31N 40°57' E 028°54'0 0.0
2018-Feb-10 20:06N 40°57' E 028°53'3 3.4
2018-Feb-10 19:20N 40°54' E 028°53'310.3
2018-Feb-10 19:00N 40°52' E 028°50'  

Dump ship's entire track history